sensor_id;sensor_type;location;lat;lon;timestamp;temperature;humidity
12557;DHT22;6344;49.932;8.308;2023-02-01T00:02:26;5.40;99.90
12557;DHT22;6344;49.932;8.308;2023-02-01T00:04:53;5.40;99.90
12557;DHT22;6344;49.932;8.308;2023-02-01T00:07:20;5.40;99.90
12557;DHT22;6344;49.932;8.308;2023-02-01T00:09:46;5.40;99.90
12557;DHT22;6344;49.932;8.308;2023-02-01T00:12:13;5.40;99.90
12557;DHT22;6344;49.932;8.308;2023-02-01T00:14:40;5.40;99.90
12557;DHT22;6344;49.932;8.308;2023-02-01T00:17:06;5.30;99.90
12557;DHT22;6344;49.932;8.308;2023-02-01T00:19:35;5.30;99.90
12557;DHT22;6344;49.932;8.308;2023-02-01T00:22:01;5.30;99.90
12557;DHT22;6344;49.932;8.308;2023-02-01T00:24:28;5.30;99.90
12557;DHT22;6344;49.932;8.308;2023-02-01T00:26:55;5.30;99.90
12557;DHT22;6344;49.932;8.308;2023-02-01T00:29:21;5.30;99.90
12557;DHT22;6344;49.932;8.308;2023-02-01T00:31:50;5.20;99.90
12557;DHT22;6344;49.932;8.308;2023-02-01T00:34:18;5.20;99.90
12557;DHT22;6344;49.932;8.308;2023-02-01T00:36:46;5.10;99.90
12557;DHT22;6344;49.932;8.308;2023-02-01T00:39:13;5.20;99.90
12557;DHT22;6344;49.932;8.308;2023-02-01T00:41:39;5.10;99.90
12557;DHT22;6344;49.932;8.308;2023-02-01T00:44:06;5.10;99.90
12557;DHT22;6344;49.932;8.308;2023-02-01T00:46:33;5.10;99.90
12557;DHT22;6344;49.932;8.308;2023-02-01T00:49:00;5.20;99.90
12557;DHT22;6344;49.932;8.308;2023-02-01T00:51:27;5.20;99.90
12557;DHT22;6344;49.932;8.308;2023-02-01T00:53:56;5.20;99.90
12557;DHT22;6344;49.932;8.308;2023-02-01T00:56:23;5.30;99.90
12557;DHT22;6344;49.932;8.308;2023-02-01T00:58:49;5.40;99.90
12557;DHT22;6344;49.932;8.308;2023-02-01T01:01:19;5.40;99.90
12557;DHT22;6344;49.932;8.308;2023-02-01T01:03:48;5.40;99.90
12557;DHT22;6344;49.932;8.308;2023-02-01T01:06:17;5.40;99.90
12557;DHT22;6344;49.932;8.308;2023-02-01T01:08:45;5.40;99.90
12557;DHT22;6344;49.932;8.308;2023-02-01T01:11:15;5.50;99.90
12557;DHT22;6344;49.932;8.308;2023-02-01T01:13:43;5.50;99.90
12557;DHT22;6344;49.932;8.308;2023-02-01T01:16:10;5.50;99.90
12557;DHT22;6344;49.932;8.308;2023-02-01T01:18:37;5.50;99.90
12557;DHT22;6344;49.932;8.308;2023-02-01T01:21:06;5.50;99.90
12557;DHT22;6344;49.932;8.308;2023-02-01T01:23:33;5.50;99.90
12557;DHT22;6344;49.932;8.308;2023-02-01T01:26:00;5.50;99.90
12557;DHT22;6344;49.932;8.308;2023-02-01T01:28:28;5.50;99.90
12557;DHT22;6344;49.932;8.308;2023-02-01T01:30:55;5.50;99.90
12557;DHT22;6344;49.932;8.308;2023-02-01T01:33:22;5.50;99.90
12557;DHT22;6344;49.932;8.308;2023-02-01T01:35:48;5.50;99.90
12557;DHT22;6344;49.932;8.308;2023-02-01T01:38:15;5.50;99.90
12557;DHT22;6344;49.932;8.308;2023-02-01T01:40:44;5.40;99.90
12557;DHT22;6344;49.932;8.308;2023-02-01T01:43:13;5.50;99.90
12557;DHT22;6344;49.932;8.308;2023-02-01T01:45:42;5.50;99.90
12557;DHT22;6344;49.932;8.308;2023-02-01T01:48:13;5.50;99.90
12557;DHT22;6344;49.932;8.308;2023-02-01T01:50:44;5.50;99.90
12557;DHT22;6344;49.932;8.308;2023-02-01T01:53:16;5.50;99.90
12557;DHT22;6344;49.932;8.308;2023-02-01T01:55:45;5.50;99.90
12557;DHT22;6344;49.932;8.308;2023-02-01T01:58:17;5.50;99.90
12557;DHT22;6344;49.932;8.308;2023-02-01T02:00:46;5.50;99.90
12557;DHT22;6344;49.932;8.308;2023-02-01T02:03:15;5.50;99.90
12557;DHT22;6344;49.932;8.308;2023-02-01T02:05:45;5.50;99.90
12557;DHT22;6344;49.932;8.308;2023-02-01T02:08:12;5.50;99.90
12557;DHT22;6344;49.932;8.308;2023-02-01T02:10:39;5.50;99.90
12557;DHT22;6344;49.932;8.308;2023-02-01T02:13:24;5.50;99.90
12557;DHT22;6344;49.932;8.308;2023-02-01T02:16:04;5.50;99.90
12557;DHT22;6344;49.932;8.308;2023-02-01T02:18:37;5.50;99.90
12557;DHT22;6344;49.932;8.308;2023-02-01T02:21:17;5.50;99.90
12557;DHT22;6344;49.932;8.308;2023-02-01T02:27:14;5.50;99.90
12557;DHT22;6344;49.932;8.308;2023-02-01T02:35:55;5.50;99.90
12557;DHT22;6344;49.932;8.308;2023-02-01T02:38:30;5.40;99.90
12557;DHT22;6344;49.932;8.308;2023-02-01T02:41:05;5.50;99.90
12557;DHT22;6344;49.932;8.308;2023-02-01T02:43:39;5.50;99.90
12557;DHT22;6344;49.932;8.308;2023-02-01T02:46:31;5.40;99.90
12557;DHT22;6344;49.932;8.308;2023-02-01T02:49:21;5.40;99.90
12557;DHT22;6344;49.932;8.308;2023-02-01T02:51:53;5.40;99.90
12557;DHT22;6344;49.932;8.308;2023-02-01T02:54:42;5.40;99.90
12557;DHT22;6344;49.932;8.308;2023-02-01T02:57:16;5.40;99.90
12557;DHT22;6344;49.932;8.308;2023-02-01T03:00:05;5.40;99.90
12557;DHT22;6344;49.932;8.308;2023-02-01T03:02:50;5.50;99.90
12557;DHT22;6344;49.932;8.308;2023-02-01T03:05:36;5.40;99.90
12557;DHT22;6344;49.932;8.308;2023-02-01T03:08:10;5.50;99.90
12557;DHT22;6344;49.932;8.308;2023-02-01T03:10:44;5.50;99.90
12557;DHT22;6344;49.932;8.308;2023-02-01T03:13:17;5.50;99.90
12557;DHT22;6344;49.932;8.308;2023-02-01T03:15:47;5.50;99.90
12557;DHT22;6344;49.932;8.308;2023-02-01T03:18:19;5.50;99.90
12557;DHT22;6344;49.932;8.308;2023-02-01T03:20:50;5.40;99.90
12557;DHT22;6344;49.932;8.308;2023-02-01T03:23:22;5.40;99.90
12557;DHT22;6344;49.932;8.308;2023-02-01T03:25:51;5.40;99.90
12557;DHT22;6344;49.932;8.308;2023-02-01T03:28:22;5.40;99.90
12557;DHT22;6344;49.932;8.308;2023-02-01T03:30:49;5.40;99.90
12557;DHT22;6344;49.932;8.308;2023-02-01T03:33:18;5.40;99.90
12557;DHT22;6344;49.932;8.308;2023-02-01T03:35:57;5.50;99.90
12557;DHT22;6344;49.932;8.308;2023-02-01T03:38:30;5.50;99.90
12557;DHT22;6344;49.932;8.308;2023-02-01T03:41:03;5.50;99.90
12557;DHT22;6344;49.932;8.308;2023-02-01T03:43:39;5.50;99.90
12557;DHT22;6344;49.932;8.308;2023-02-01T03:46:12;5.40;99.90
12557;DHT22;6344;49.932;8.308;2023-02-01T03:48:40;5.40;99.90
12557;DHT22;6344;49.932;8.308;2023-02-01T03:51:09;5.40;99.90
12557;DHT22;6344;49.932;8.308;2023-02-01T03:53:40;5.40;99.90
12557;DHT22;6344;49.932;8.308;2023-02-01T03:56:08;5.40;99.90
12557;DHT22;6344;49.932;8.308;2023-02-01T03:58:37;5.40;99.90
12557;DHT22;6344;49.932;8.308;2023-02-01T04:01:04;5.40;99.90
12557;DHT22;6344;49.932;8.308;2023-02-01T04:03:30;5.40;99.90
12557;DHT22;6344;49.932;8.308;2023-02-01T04:05:57;5.40;99.90
12557;DHT22;6344;49.932;8.308;2023-02-01T04:08:24;5.50;99.90
12557;DHT22;6344;49.932;8.308;2023-02-01T04:10:52;5.40;99.90
12557;DHT22;6344;49.932;8.308;2023-02-01T04:13:19;5.40;99.90
12557;DHT22;6344;49.932;8.308;2023-02-01T04:15:46;5.40;99.90
12557;DHT22;6344;49.932;8.308;2023-02-01T04:18:15;5.30;99.90
12557;DHT22;6344;49.932;8.308;2023-02-01T04:20:43;5.40;99.90
12557;DHT22;6344;49.932;8.308;2023-02-01T04:23:10;5.40;99.90
12557;DHT22;6344;49.932;8.308;2023-02-01T04:25:36;5.30;99.90
12557;DHT22;6344;49.932;8.308;2023-02-01T04:28:04;5.30;99.90
12557;DHT22;6344;49.932;8.308;2023-02-01T04:30:32;5.30;99.90
12557;DHT22;6344;49.932;8.308;2023-02-01T04:32:59;5.30;99.90
12557;DHT22;6344;49.932;8.308;2023-02-01T04:35:25;5.30;99.90
12557;DHT22;6344;49.932;8.308;2023-02-01T04:37:52;5.30;99.90
12557;DHT22;6344;49.932;8.308;2023-02-01T04:40:18;5.30;99.90
12557;DHT22;6344;49.932;8.308;2023-02-01T04:42:45;5.30;99.90
12557;DHT22;6344;49.932;8.308;2023-02-01T04:45:13;5.40;99.90
12557;DHT22;6344;49.932;8.308;2023-02-01T04:47:40;5.40;99.90
12557;DHT22;6344;49.932;8.308;2023-02-01T04:50:07;5.40;99.90
12557;DHT22;6344;49.932;8.308;2023-02-01T04:52:36;5.40;99.90
12557;DHT22;6344;49.932;8.308;2023-02-01T04:55:03;5.30;99.90
12557;DHT22;6344;49.932;8.308;2023-02-01T04:57:30;5.40;99.90
12557;DHT22;6344;49.932;8.308;2023-02-01T04:59:56;5.40;99.90
12557;DHT22;6344;49.932;8.308;2023-02-01T05:02:24;5.40;99.90
12557;DHT22;6344;49.932;8.308;2023-02-01T05:04:51;5.30;99.90
12557;DHT22;6344;49.932;8.308;2023-02-01T05:07:18;5.30;99.90
12557;DHT22;6344;49.932;8.308;2023-02-01T05:09:44;5.30;99.90
12557;DHT22;6344;49.932;8.308;2023-02-01T05:12:11;5.30;99.90
12557;DHT22;6344;49.932;8.308;2023-02-01T05:14:55;5.30;99.90
12557;DHT22;6344;49.932;8.308;2023-02-01T05:17:22;5.30;99.90
12557;DHT22;6344;49.932;8.308;2023-02-01T05:19:50;5.30;99.90
12557;DHT22;6344;49.932;8.308;2023-02-01T05:22:17;5.30;99.90
12557;DHT22;6344;49.932;8.308;2023-02-01T05:24:44;5.30;99.90
12557;DHT22;6344;49.932;8.308;2023-02-01T05:27:11;5.20;99.90
12557;DHT22;6344;49.932;8.308;2023-02-01T05:29:38;5.20;99.90
12557;DHT22;6344;49.932;8.308;2023-02-01T05:32:04;5.20;99.90
12557;DHT22;6344;49.932;8.308;2023-02-01T05:34:31;5.20;99.90
12557;DHT22;6344;49.932;8.308;2023-02-01T05:36:59;5.20;99.90
12557;DHT22;6344;49.932;8.308;2023-02-01T05:39:26;5.20;99.90
12557;DHT22;6344;49.932;8.308;2023-02-01T05:41:52;5.20;99.90
12557;DHT22;6344;49.932;8.308;2023-02-01T05:44:19;5.20;99.90
12557;DHT22;6344;49.932;8.308;2023-02-01T05:46:45;5.20;99.90
12557;DHT22;6344;49.932;8.308;2023-02-01T05:49:12;5.20;99.90
12557;DHT22;6344;49.932;8.308;2023-02-01T05:51:39;5.20;99.90
12557;DHT22;6344;49.932;8.308;2023-02-01T05:54:08;5.20;99.90
12557;DHT22;6344;49.932;8.308;2023-02-01T05:56:35;5.30;99.90
12557;DHT22;6344;49.932;8.308;2023-02-01T05:59:01;5.30;99.90
12557;DHT22;6344;49.932;8.308;2023-02-01T06:01:28;5.30;99.90
12557;DHT22;6344;49.932;8.308;2023-02-01T06:03:55;5.20;99.90
12557;DHT22;6344;49.932;8.308;2023-02-01T06:06:21;5.10;99.90
12557;DHT22;6344;49.932;8.308;2023-02-01T06:08:48;5.10;99.90
12557;DHT22;6344;49.932;8.308;2023-02-01T06:11:16;5.00;99.90
12557;DHT22;6344;49.932;8.308;2023-02-01T06:13:42;5.00;99.90
12557;DHT22;6344;49.932;8.308;2023-02-01T06:16:09;5.00;99.90
12557;DHT22;6344;49.932;8.308;2023-02-01T06:18:36;5.00;99.90
12557;DHT22;6344;49.932;8.308;2023-02-01T06:21:03;5.00;99.90
12557;DHT22;6344;49.932;8.308;2023-02-01T06:23:30;5.00;99.90
12557;DHT22;6344;49.932;8.308;2023-02-01T06:26:02;5.00;99.90
12557;DHT22;6344;49.932;8.308;2023-02-01T06:28:31;5.00;99.90
12557;DHT22;6344;49.932;8.308;2023-02-01T06:31:03;5.00;99.90
12557;DHT22;6344;49.932;8.308;2023-02-01T06:33:31;5.00;99.90
12557;DHT22;6344;49.932;8.308;2023-02-01T06:35:59;5.00;99.90
12557;DHT22;6344;49.932;8.308;2023-02-01T06:38:26;4.90;99.90
12557;DHT22;6344;49.932;8.308;2023-02-01T06:40:54;4.80;99.90
12557;DHT22;6344;49.932;8.308;2023-02-01T06:43:21;4.80;99.90
12557;DHT22;6344;49.932;8.308;2023-02-01T06:45:49;4.80;99.90
12557;DHT22;6344;49.932;8.308;2023-02-01T06:48:16;4.80;99.90
12557;DHT22;6344;49.932;8.308;2023-02-01T06:50:43;4.70;99.90
12557;DHT22;6344;49.932;8.308;2023-02-01T06:53:09;4.50;99.90
12557;DHT22;6344;49.932;8.308;2023-02-01T06:55:36;4.40;99.90
12557;DHT22;6344;49.932;8.308;2023-02-01T06:58:03;4.40;99.90
12557;DHT22;6344;49.932;8.308;2023-02-01T07:00:29;4.30;99.90
12557;DHT22;6344;49.932;8.308;2023-02-01T07:02:58;4.30;99.90
12557;DHT22;6344;49.932;8.308;2023-02-01T07:05:26;4.30;99.90
12557;DHT22;6344;49.932;8.308;2023-02-01T07:07:53;4.30;99.90
12557;DHT22;6344;49.932;8.308;2023-02-01T07:10:19;4.30;99.90
12557;DHT22;6344;49.932;8.308;2023-02-01T07:12:46;4.30;99.90
12557;DHT22;6344;49.932;8.308;2023-02-01T07:15:12;4.30;99.90
12557;DHT22;6344;49.932;8.308;2023-02-01T07:17:39;4.30;99.90
12557;DHT22;6344;49.932;8.308;2023-02-01T07:20:08;4.30;99.90
12557;DHT22;6344;49.932;8.308;2023-02-01T07:22:35;4.30;99.90
12557;DHT22;6344;49.932;8.308;2023-02-01T07:25:03;4.40;99.90
12557;DHT22;6344;49.932;8.308;2023-02-01T07:27:29;4.50;99.90
12557;DHT22;6344;49.932;8.308;2023-02-01T07:29:56;4.50;99.90
12557;DHT22;6344;49.932;8.308;2023-02-01T07:32:27;4.50;99.90
12557;DHT22;6344;49.932;8.308;2023-02-01T07:34:53;4.50;99.90
12557;DHT22;6344;49.932;8.308;2023-02-01T07:37:21;4.60;99.90
12557;DHT22;6344;49.932;8.308;2023-02-01T07:39:49;4.60;99.90
12557;DHT22;6344;49.932;8.308;2023-02-01T07:42:16;4.70;99.90
12557;DHT22;6344;49.932;8.308;2023-02-01T07:44:43;4.70;99.90
12557;DHT22;6344;49.932;8.308;2023-02-01T07:47:09;4.80;99.90
12557;DHT22;6344;49.932;8.308;2023-02-01T07:49:36;4.80;99.90
12557;DHT22;6344;49.932;8.308;2023-02-01T07:52:03;4.90;99.90
12557;DHT22;6344;49.932;8.308;2023-02-01T07:54:31;5.00;99.90
12557;DHT22;6344;49.932;8.308;2023-02-01T07:56:57;5.00;99.90
12557;DHT22;6344;49.932;8.308;2023-02-01T07:59:24;5.10;99.90
12557;DHT22;6344;49.932;8.308;2023-02-01T08:01:51;5.10;99.90
12557;DHT22;6344;49.932;8.308;2023-02-01T08:04:16;5.20;99.90
12557;DHT22;6344;49.932;8.308;2023-02-01T08:06:43;5.30;99.90
12557;DHT22;6344;49.932;8.308;2023-02-01T08:09:10;5.30;99.90
12557;DHT22;6344;49.932;8.308;2023-02-01T08:11:38;5.40;99.90
12557;DHT22;6344;49.932;8.308;2023-02-01T08:14:05;5.40;99.90
12557;DHT22;6344;49.932;8.308;2023-02-01T08:16:32;5.50;99.90
12557;DHT22;6344;49.932;8.308;2023-02-01T08:19:02;5.60;99.90
12557;DHT22;6344;49.932;8.308;2023-02-01T08:21:29;5.70;99.90
12557;DHT22;6344;49.932;8.308;2023-02-01T08:24:03;5.80;99.90
12557;DHT22;6344;49.932;8.308;2023-02-01T08:26:30;5.80;99.90
12557;DHT22;6344;49.932;8.308;2023-02-01T08:29:00;5.80;99.90
12557;DHT22;6344;49.932;8.308;2023-02-01T08:31:29;5.80;99.90
12557;DHT22;6344;49.932;8.308;2023-02-01T08:33:57;5.80;99.90
12557;DHT22;6344;49.932;8.308;2023-02-01T08:36:26;5.80;99.90
12557;DHT22;6344;49.932;8.308;2023-02-01T08:38:53;5.90;99.90
12557;DHT22;6344;49.932;8.308;2023-02-01T08:41:22;6.00;99.90
12557;DHT22;6344;49.932;8.308;2023-02-01T08:43:49;6.00;99.90
12557;DHT22;6344;49.932;8.308;2023-02-01T08:46:17;6.10;99.90
12557;DHT22;6344;49.932;8.308;2023-02-01T08:48:45;6.10;99.90
12557;DHT22;6344;49.932;8.308;2023-02-01T08:51:13;6.20;99.90
12557;DHT22;6344;49.932;8.308;2023-02-01T08:53:41;6.20;99.90
12557;DHT22;6344;49.932;8.308;2023-02-01T08:56:08;6.30;99.90
12557;DHT22;6344;49.932;8.308;2023-02-01T08:58:35;6.40;99.90
12557;DHT22;6344;49.932;8.308;2023-02-01T09:01:03;6.40;99.90
12557;DHT22;6344;49.932;8.308;2023-02-01T09:03:32;6.50;99.90
12557;DHT22;6344;49.932;8.308;2023-02-01T09:06:03;6.70;99.90
12557;DHT22;6344;49.932;8.308;2023-02-01T09:08:29;6.90;99.90
12557;DHT22;6344;49.932;8.308;2023-02-01T09:10:59;6.90;99.90
12557;DHT22;6344;49.932;8.308;2023-02-01T09:13:26;6.80;99.90
12557;DHT22;6344;49.932;8.308;2023-02-01T09:15:53;7.00;99.90
12557;DHT22;6344;49.932;8.308;2023-02-01T09:18:20;7.00;99.90
12557;DHT22;6344;49.932;8.308;2023-02-01T09:20:48;7.10;99.90
12557;DHT22;6344;49.932;8.308;2023-02-01T09:23:14;7.10;99.90
12557;DHT22;6344;49.932;8.308;2023-02-01T09:25:41;7.20;99.90
12557;DHT22;6344;49.932;8.308;2023-02-01T09:28:07;7.50;61.30
12557;DHT22;6344;49.932;8.308;2023-02-01T09:30:35;7.40;92.20
12557;DHT22;6344;49.932;8.308;2023-02-01T09:33:02;7.60;60.30
12557;DHT22;6344;49.932;8.308;2023-02-01T09:35:29;7.50;31.70
12557;DHT22;6344;49.932;8.308;2023-02-01T09:37:57;7.40;49.10
12557;DHT22;6344;49.932;8.308;2023-02-01T09:40:23;7.30;99.90
12557;DHT22;6344;49.932;8.308;2023-02-01T09:43:06;7.30;99.90
12557;DHT22;6344;49.932;8.308;2023-02-01T09:45:44;7.20;92.40
12557;DHT22;6344;49.932;8.308;2023-02-01T09:48:16;7.10;76.30
12557;DHT22;6344;49.932;8.308;2023-02-01T09:50:47;6.90;94.90
12557;DHT22;6344;49.932;8.308;2023-02-01T09:53:21;6.90;73.40
12557;DHT22;6344;49.932;8.308;2023-02-01T09:55:50;6.90;76.30
12557;DHT22;6344;49.932;8.308;2023-02-01T09:58:22;6.90;99.90
12557;DHT22;6344;49.932;8.308;2023-02-01T10:00:53;6.90;93.30
12557;DHT22;6344;49.932;8.308;2023-02-01T10:03:20;6.90;99.90
12557;DHT22;6344;49.932;8.308;2023-02-01T10:06:05;7.00;62.00
12557;DHT22;6344;49.932;8.308;2023-02-01T10:08:42;7.10;79.20
12557;DHT22;6344;49.932;8.308;2023-02-01T10:11:25;7.10;51.00
12557;DHT22;6344;49.932;8.308;2023-02-01T10:14:00;7.10;56.10
12557;DHT22;6344;49.932;8.308;2023-02-01T10:16:37;7.10;49.20
12557;DHT22;6344;49.932;8.308;2023-02-01T10:19:24;7.10;91.30
12557;DHT22;6344;49.932;8.308;2023-02-01T10:21:59;7.10;41.70
12557;DHT22;6344;49.932;8.308;2023-02-01T10:24:38;7.10;98.20
12557;DHT22;6344;49.932;8.308;2023-02-01T10:27:14;7.20;28.10
12557;DHT22;6344;49.932;8.308;2023-02-01T10:29:45;7.20;45.30
12557;DHT22;6344;49.932;8.308;2023-02-01T10:32:15;7.10;46.80
12557;DHT22;6344;49.932;8.308;2023-02-01T10:34:44;7.20;42.40
12557;DHT22;6344;49.932;8.308;2023-02-01T10:37:20;7.20;37.20
12557;DHT22;6344;49.932;8.308;2023-02-01T10:39:53;7.20;50.40
12557;DHT22;6344;49.932;8.308;2023-02-01T10:42:23;7.20;62.80
12557;DHT22;6344;49.932;8.308;2023-02-01T10:44:50;7.20;50.40
12557;DHT22;6344;49.932;8.308;2023-02-01T10:47:18;7.20;63.20
12557;DHT22;6344;49.932;8.308;2023-02-01T10:49:52;7.20;99.90
12557;DHT22;6344;49.932;8.308;2023-02-01T10:52:29;7.20;59.50
12557;DHT22;6344;49.932;8.308;2023-02-01T10:55:28;7.20;50.10
12557;DHT22;6344;49.932;8.308;2023-02-01T10:57:57;7.20;63.40
12557;DHT22;6344;49.932;8.308;2023-02-01T11:00:24;7.20;48.60
12557;DHT22;6344;49.932;8.308;2023-02-01T11:02:52;7.20;65.10
12557;DHT22;6344;49.932;8.308;2023-02-01T11:05:20;7.20;99.90
12557;DHT22;6344;49.932;8.308;2023-02-01T11:07:49;7.10;71.30
12557;DHT22;6344;49.932;8.308;2023-02-01T11:10:37;7.20;86.10
12557;DHT22;6344;49.932;8.308;2023-02-01T11:13:11;7.20;66.20
12557;DHT22;6344;49.932;8.308;2023-02-01T11:15:43;7.20;91.60
12557;DHT22;6344;49.932;8.308;2023-02-01T11:18:16;7.20;43.50
12557;DHT22;6344;49.932;8.308;2023-02-01T11:20:44;7.10;89.40
12557;DHT22;6344;49.932;8.308;2023-02-01T11:23:15;7.10;54.60
12557;DHT22;6344;49.932;8.308;2023-02-01T11:25:49;7.10;64.90
12557;DHT22;6344;49.932;8.308;2023-02-01T11:28:17;7.00;54.40
12557;DHT22;6344;49.932;8.308;2023-02-01T11:30:45;7.00;50.70
12557;DHT22;6344;49.932;8.308;2023-02-01T11:33:15;7.00;63.30
12557;DHT22;6344;49.932;8.308;2023-02-01T11:35:43;7.20;54.30
12557;DHT22;6344;49.932;8.308;2023-02-01T11:38:21;7.30;22.60
12557;DHT22;6344;49.932;8.308;2023-02-01T11:40:49;7.40;61.60
12557;DHT22;6344;49.932;8.308;2023-02-01T11:43:22;7.40;26.60
12557;DHT22;6344;49.932;8.308;2023-02-01T11:45:55;7.40;27.80
12557;DHT22;6344;49.932;8.308;2023-02-01T11:48:23;7.40;25.70
12557;DHT22;6344;49.932;8.308;2023-02-01T11:50:59;7.30;32.10
12557;DHT22;6344;49.932;8.308;2023-02-01T11:53:37;7.30;61.10
12557;DHT22;6344;49.932;8.308;2023-02-01T11:56:15;7.40;53.00
12557;DHT22;6344;49.932;8.308;2023-02-01T11:58:56;7.60;56.10
12557;DHT22;6344;49.932;8.308;2023-02-01T12:01:41;7.50;18.10
12557;DHT22;6344;49.932;8.308;2023-02-01T12:04:44;7.40;40.80
12557;DHT22;6344;49.932;8.308;2023-02-01T12:07:17;7.30;72.90
12557;DHT22;6344;49.932;8.308;2023-02-01T12:09:59;7.30;39.80
12557;DHT22;6344;49.932;8.308;2023-02-01T12:12:36;7.40;52.50
12557;DHT22;6344;49.932;8.308;2023-02-01T12:15:22;7.40;21.80
12557;DHT22;6344;49.932;8.308;2023-02-01T12:18:05;7.40;38.60
12557;DHT22;6344;49.932;8.308;2023-02-01T12:20:56;7.40;30.00
12557;DHT22;6344;49.932;8.308;2023-02-01T12:23:38;7.50;32.90
12557;DHT22;6344;49.932;8.308;2023-02-01T12:26:21;8.00;9.90
12557;DHT22;6344;49.932;8.308;2023-02-01T12:29:04;8.40;1.00
12557;DHT22;6344;49.932;8.308;2023-02-01T12:31:46;8.30;1.00
12557;DHT22;6344;49.932;8.308;2023-02-01T12:34:34;8.30;1.00
12557;DHT22;6344;49.932;8.308;2023-02-01T12:37:18;8.40;1.00
12557;DHT22;6344;49.932;8.308;2023-02-01T12:39:49;8.20;1.00
12557;DHT22;6344;49.932;8.308;2023-02-01T12:42:24;8.20;1.00
12557;DHT22;6344;49.932;8.308;2023-02-01T12:44:55;8.10;1.00
12557;DHT22;6344;49.932;8.308;2023-02-01T12:47:27;8.20;1.00
12557;DHT22;6344;49.932;8.308;2023-02-01T12:50:00;8.10;1.00
12557;DHT22;6344;49.932;8.308;2023-02-01T12:52:35;8.20;1.00
12557;DHT22;6344;49.932;8.308;2023-02-01T12:55:10;8.20;1.00
12557;DHT22;6344;49.932;8.308;2023-02-01T12:57:45;8.40;1.00
12557;DHT22;6344;49.932;8.308;2023-02-01T13:00:20;8.30;1.00
12557;DHT22;6344;49.932;8.308;2023-02-01T13:02:54;8.30;1.00
12557;DHT22;6344;49.932;8.308;2023-02-01T13:05:29;8.20;1.00
12557;DHT22;6344;49.932;8.308;2023-02-01T13:08:01;8.10;1.00
12557;DHT22;6344;49.932;8.308;2023-02-01T13:10:33;8.00;1.00
12557;DHT22;6344;49.932;8.308;2023-02-01T13:13:07;7.90;1.00
12557;DHT22;6344;49.932;8.308;2023-02-01T13:15:40;7.90;1.00
12557;DHT22;6344;49.932;8.308;2023-02-01T13:18:14;7.90;1.00
12557;DHT22;6344;49.932;8.308;2023-02-01T13:20:47;7.90;1.00
12557;DHT22;6344;49.932;8.308;2023-02-01T13:23:23;7.80;1.00
12557;DHT22;6344;49.932;8.308;2023-02-01T13:25:52;7.80;1.00
12557;DHT22;6344;49.932;8.308;2023-02-01T13:28:25;7.80;1.00
12557;DHT22;6344;49.932;8.308;2023-02-01T13:31:05;7.80;1.00
12557;DHT22;6344;49.932;8.308;2023-02-01T13:33:52;7.90;1.00
12557;DHT22;6344;49.932;8.308;2023-02-01T13:36:47;8.00;1.00
12557;DHT22;6344;49.932;8.308;2023-02-01T13:42:22;7.90;1.00
12557;DHT22;6344;49.932;8.308;2023-02-01T13:44:51;7.80;1.00
12557;DHT22;6344;49.932;8.308;2023-02-01T13:47:25;7.80;1.00
12557;DHT22;6344;49.932;8.308;2023-02-01T13:49:53;7.80;1.00
12557;DHT22;6344;49.932;8.308;2023-02-01T13:52:32;8.00;1.00
12557;DHT22;6344;49.932;8.308;2023-02-01T13:55:23;8.00;1.00
12557;DHT22;6344;49.932;8.308;2023-02-01T13:57:51;8.30;1.00
12557;DHT22;6344;49.932;8.308;2023-02-01T14:00:27;8.20;1.00
12557;DHT22;6344;49.932;8.308;2023-02-01T14:03:12;8.20;1.00
12557;DHT22;6344;49.932;8.308;2023-02-01T14:06:02;8.20;1.00
12557;DHT22;6344;49.932;8.308;2023-02-01T14:08:41;8.10;1.00
12557;DHT22;6344;49.932;8.308;2023-02-01T14:11:40;8.10;1.00
12557;DHT22;6344;49.932;8.308;2023-02-01T14:17:36;8.00;1.00
12557;DHT22;6344;49.932;8.308;2023-02-01T14:23:30;8.10;1.00
12557;DHT22;6344;49.932;8.308;2023-02-01T14:26:19;8.20;1.00
12557;DHT22;6344;49.932;8.308;2023-02-01T14:28:57;8.30;1.00
12557;DHT22;6344;49.932;8.308;2023-02-01T14:31:50;8.20;1.00
12557;DHT22;6344;49.932;8.308;2023-02-01T14:34:22;8.10;1.00
12557;DHT22;6344;49.932;8.308;2023-02-01T14:36:55;8.00;1.00
12557;DHT22;6344;49.932;8.308;2023-02-01T14:39:27;7.90;1.00
12557;DHT22;6344;49.932;8.308;2023-02-01T14:41:58;7.80;1.00
12557;DHT22;6344;49.932;8.308;2023-02-01T14:44:28;7.70;1.00
12557;DHT22;6344;49.932;8.308;2023-02-01T14:47:29;7.70;1.00
12557;DHT22;6344;49.932;8.308;2023-02-01T14:50:18;7.80;1.00
12557;DHT22;6344;49.932;8.308;2023-02-01T14:52:50;7.80;1.00
12557;DHT22;6344;49.932;8.308;2023-02-01T14:55:25;7.80;1.00
12557;DHT22;6344;49.932;8.308;2023-02-01T14:57:55;7.70;1.00
12557;DHT22;6344;49.932;8.308;2023-02-01T15:00:26;7.70;1.00
12557;DHT22;6344;49.932;8.308;2023-02-01T15:02:56;7.70;1.00
12557;DHT22;6344;49.932;8.308;2023-02-01T15:05:30;7.80;1.00
12557;DHT22;6344;49.932;8.308;2023-02-01T15:08:03;7.70;1.00
12557;DHT22;6344;49.932;8.308;2023-02-01T15:10:39;7.80;1.00
12557;DHT22;6344;49.932;8.308;2023-02-01T15:13:18;7.70;1.00
12557;DHT22;6344;49.932;8.308;2023-02-01T15:15:45;7.70;1.00
12557;DHT22;6344;49.932;8.308;2023-02-01T15:18:25;7.70;1.00
12557;DHT22;6344;49.932;8.308;2023-02-01T15:20:56;7.70;1.00
12557;DHT22;6344;49.932;8.308;2023-02-01T15:23:24;7.70;1.00
12557;DHT22;6344;49.932;8.308;2023-02-01T15:32:39;7.60;1.00
12557;DHT22;6344;49.932;8.308;2023-02-01T15:35:33;7.60;1.00
12557;DHT22;6344;49.932;8.308;2023-02-01T15:41:09;7.60;1.00
12557;DHT22;6344;49.932;8.308;2023-02-01T15:43:40;7.70;1.00
12557;DHT22;6344;49.932;8.308;2023-02-01T15:46:10;7.70;1.00
12557;DHT22;6344;49.932;8.308;2023-02-01T15:48:43;7.60;1.00
12557;DHT22;6344;49.932;8.308;2023-02-01T15:51:18;7.60;1.00
12557;DHT22;6344;49.932;8.308;2023-02-01T15:53:49;7.70;1.00
12557;DHT22;6344;49.932;8.308;2023-02-01T15:56:22;7.70;1.00
12557;DHT22;6344;49.932;8.308;2023-02-01T15:58:53;7.70;1.00
12557;DHT22;6344;49.932;8.308;2023-02-01T16:01:20;7.70;1.00
12557;DHT22;6344;49.932;8.308;2023-02-01T16:03:48;7.70;1.00
12557;DHT22;6344;49.932;8.308;2023-02-01T16:06:30;7.70;1.00
12557;DHT22;6344;49.932;8.308;2023-02-01T16:09:07;7.60;1.00
12557;DHT22;6344;49.932;8.308;2023-02-01T16:11:41;7.60;1.00
12557;DHT22;6344;49.932;8.308;2023-02-01T16:14:08;7.60;1.00
12557;DHT22;6344;49.932;8.308;2023-02-01T16:16:35;7.70;1.00
12557;DHT22;6344;49.932;8.308;2023-02-01T16:19:02;7.60;1.00
12557;DHT22;6344;49.932;8.308;2023-02-01T16:21:29;7.60;1.00
12557;DHT22;6344;49.932;8.308;2023-02-01T16:23:56;7.50;1.00
12557;DHT22;6344;49.932;8.308;2023-02-01T16:26:22;7.50;1.00
12557;DHT22;6344;49.932;8.308;2023-02-01T16:28:49;7.50;1.00
12557;DHT22;6344;49.932;8.308;2023-02-01T16:31:17;7.50;1.00
12557;DHT22;6344;49.932;8.308;2023-02-01T16:33:46;7.50;1.00
12557;DHT22;6344;49.932;8.308;2023-02-01T16:36:15;7.60;1.00
12557;DHT22;6344;49.932;8.308;2023-02-01T16:38:42;7.50;1.00
12557;DHT22;6344;49.932;8.308;2023-02-01T16:41:12;7.50;1.00
12557;DHT22;6344;49.932;8.308;2023-02-01T16:43:39;7.50;1.00
12557;DHT22;6344;49.932;8.308;2023-02-01T16:46:12;7.50;1.00
12557;DHT22;6344;49.932;8.308;2023-02-01T16:48:41;7.40;1.00
12557;DHT22;6344;49.932;8.308;2023-02-01T16:51:11;7.40;1.00
12557;DHT22;6344;49.932;8.308;2023-02-01T16:53:40;7.40;1.00
12557;DHT22;6344;49.932;8.308;2023-02-01T16:56:13;7.30;1.00
12557;DHT22;6344;49.932;8.308;2023-02-01T16:58:40;7.20;1.00
12557;DHT22;6344;49.932;8.308;2023-02-01T17:01:08;7.20;1.00